Watertown, SD (57201)

2:40 AM CST on February 08, 2016 (GMT -0600)
East side of Watertown, SD | | Change Station
CLOSE
Current Station
Personal Weather Station
Location: Watertown, SD
Elevation: 1732 ft
Nearby Weather Stations
Active Advisory: Winter Weather Advisory

Elev 1732 ft 44.89 °N, 97.09 °W | Updated 7 minutes ago

Light Snow
Light Snow
21.0 °F
Feels Like 6 °F
N
19.7
Wind Variable Wind from NNW

Today
High -- | Low -- °F
--% Chance of Precip.
Yesterday
High -- | Low -- °F
Precip. -- in
Pressure 29.98 in
Visibility 3.0 miles
Clouds Overcast 2100 ft
Windchill 6 °F
Dew Point 17 °F
Humidity 84%
Rainfall 0.00 in
Snow Depth Not available.
7:39 AM 5:46 PM
Waning Crescent, 0% visible
SPECI KATY 080821Z AUTO 34028G37KT 3SM -SN OVC021 M07/M11 A2998 RMK AO2 PK WND 34037/0815 P0000 T10721111
Pressure 29.98 in
Visibility 3.0 miles
Clouds Overcast 2100 ft
Windchill 6 °F
Dew Point 17 °F
Humidity 84%
Rainfall 0.00 in
Snow Depth Not available.
7:39 AM 5:46 PM
Waning Crescent, 0% visible
SPECI KATY 080821Z AUTO 34028G37KT 3SM -SN OVC021 M07/M11 A2998 RMK AO2 PK WND 34037/0815 P0000 T10721111

10-Day Weather Forecast

Almanac

Astronomy

Feb. 08, 2016 Rise Set
Actual Time
Civil Twilight
Nautical Twilight
Astronomical Twilight
Moon
Length of Visible Light
Length of Day
Tomorrow will be .
, % of the Moon is Illuminated

Today's Extremes

State Highs State Lows

Community

WunderPhotos

Upload Photos

1,891,412 photos uploaded!

WunderBlog® & News

Nearby

Air Quality

  Air Quality AQ Index Pollutant
Not available.

Snow Depth

Station Depth Elevation

Earthquake Activity

City Distance Mag. Time & Date
Minimum magnitude displayed is 2.5.

Coastal Water Temperatures

Place Temperature

Stations

Nearby Weather Stations

Station Location Temp. Windchill Dew Point Humidity Wind Precip. Elev Updated Type
                   

Watches & Warnings

Winter Weather Advisory
Issued: 10:24 PM CST Feb. 7, 2016 – National Weather Service

... Winter Weather Advisory remains in effect until 6 am CST
Monday...

* expect snow to continue... diminishing around 6 am Monday.

* Additional snow accumulations of up to 1 inch are expected.

* Look for reduced visibilities at times.

* Plan on slippery Road conditions... including during the
morning commute on Monday.

Precautionary/preparedness actions...

A Winter Weather Advisory for snow means periods of snow will
cause travel difficulties. Be prepared for snow covered roads and
limited visibilities... and use caution while driving. The latest
Road conditions for the state you are calling from can be
obtained by calling 5 1 1.

Tmt